createdAt,value
2022-08-29T00:02:15.410Z,99987.31
2022-08-29T00:04:49.390Z,99997.00
2022-08-29T00:07:19.131Z,99989.34
2022-08-29T00:09:52.845Z,99995.00
2022-08-29T00:12:25.462Z,99991.09
2022-08-29T00:14:59.979Z,99988.84
2022-08-29T00:17:29.277Z,99997.19
2022-08-29T00:20:05.948Z,99997.47
2022-08-29T00:22:36.342Z,99993.34
2022-08-29T00:25:09.727Z,99992.47
2022-08-29T00:27:40.636Z,99999.09
2022-08-29T00:30:17.489Z,99996.56
2022-08-29T00:32:47.728Z,99995.59
2022-08-29T00:35:21.947Z,100000.81
2022-08-29T00:37:55.122Z,99997.72
2022-08-29T00:40:28.675Z,100000.91
2022-08-29T00:43:00.681Z,99997.06
2022-08-29T00:45:32.934Z,100007.03
2022-08-29T00:48:15.113Z,100008.81
2022-08-29T00:50:53.123Z,100024.00
2022-08-29T00:53:29.999Z,100021.00
2022-08-29T00:56:00.546Z,100018.56
2022-08-29T00:58:32.659Z,100018.94
2022-08-29T01:01:05.260Z,100023.03
2022-08-29T01:03:36.039Z,100026.66
2022-08-29T01:06:14.660Z,100026.91
2022-08-29T01:08:43.305Z,100025.53
2022-08-29T01:11:32.973Z,100026.31
2022-08-29T01:14:02.222Z,100022.12
2022-08-29T01:16:31.977Z,100019.69
2022-08-29T01:19:06.029Z,100028.19
2022-08-29T01:21:44.364Z,100018.91
2022-08-29T01:24:15.529Z,100027.06
2022-08-29T01:26:47.488Z,100024.00
2022-08-29T01:29:16.058Z,100028.81
2022-08-29T01:31:56.679Z,100033.97
2022-08-29T01:34:29.767Z,100027.69
2022-08-29T01:37:01.004Z,100036.44
2022-08-29T01:39:32.904Z,100036.03
2022-08-29T01:42:05.270Z,100034.28
2022-08-29T01:44:33.694Z,100035.56
2022-08-29T01:47:05.311Z,100034.81
2022-08-29T01:49:37.798Z,100022.81
2022-08-29T01:52:10.078Z,100020.56
2022-08-29T01:54:41.309Z,100025.00
2022-08-29T01:57:13.074Z,100022.31
2022-08-29T01:59:44.445Z,100027.34
2022-08-29T02:02:24.248Z,100032.97
2022-08-29T02:04:56.468Z,100032.41
2022-08-29T02:07:25.576Z,100027.09
2022-08-29T02:09:55.320Z,100031.19
2022-08-29T02:12:23.337Z,100032.75
2022-08-29T02:14:52.146Z,100027.44
2022-08-29T02:17:21.073Z,100031.66
2022-08-29T02:19:49.139Z,100028.53
2022-08-29T02:22:19.449Z,100027.25
2022-08-29T02:24:49.456Z,100017.56
2022-08-29T02:27:18.032Z,100014.81
2022-08-29T02:29:46.177Z,100010.59
2022-08-29T02:32:18.083Z,100005.66
2022-08-29T02:34:49.256Z,100005.94
2022-08-29T02:37:21.356Z,100004.84
2022-08-29T02:39:50.988Z,99999.19
2022-08-29T02:42:24.093Z,99997.97
2022-08-29T02:45:01.899Z,99999.19
2022-08-29T02:47:38.986Z,100003.81
2022-08-29T02:50:11.359Z,100006.22
2022-08-29T02:52:45.540Z,100010.59
2022-08-29T02:55:18.849Z,100000.41
2022-08-29T02:57:50.822Z,100002.75
2022-08-29T03:00:23.377Z,100001.72
2022-08-29T03:02:53.708Z,100006.22
2022-08-29T03:05:23.820Z,100004.69
2022-08-29T03:07:52.624Z,100000.47
2022-08-29T03:10:21.741Z,100002.16
2022-08-29T03:12:50.566Z,100006.16
2022-08-29T03:15:19.864Z,100008.47
2022-08-29T03:17:48.332Z,100010.84
2022-08-29T03:20:18.672Z,100019.66
2022-08-29T03:22:47.887Z,100022.06
2022-08-29T03:25:16.511Z,100017.59
2022-08-29T03:27:44.820Z,100028.00
2022-08-29T03:30:15.141Z,100030.66
2022-08-29T03:32:44.386Z,100030.50
2022-08-29T03:35:16.103Z,100043.91
2022-08-29T03:37:44.202Z,100043.87
2022-08-29T03:40:13.429Z,100047.16
2022-08-29T03:42:43.125Z,100049.00
2022-08-29T03:45:14.057Z,100048.13
2022-08-29T03:47:43.032Z,100055.41
2022-08-29T03:50:13.141Z,100056.34
2022-08-29T03:52:44.378Z,100058.75
2022-08-29T03:55:13.128Z,100061.31
2022-08-29T03:57:41.521Z,100069.03
2022-08-29T04:00:13.820Z,100077.50
2022-08-29T04:02:45.257Z,100078.38
2022-08-29T04:05:15.374Z,100087.97
2022-08-29T04:07:57.404Z,100084.47
2022-08-29T04:10:32.895Z,100088.84
2022-08-29T04:13:02.322Z,100087.19
2022-08-29T04:15:34.974Z,100084.66
2022-08-29T04:18:07.093Z,100083.06
2022-08-29T04:20:38.655Z,100082.09
2022-08-29T04:23:08.095Z,100085.25
2022-08-29T04:25:37.768Z,100088.13
2022-08-29T04:28:08.718Z,100080.87
2022-08-29T04:30:40.538Z,100086.19
2022-08-29T04:33:09.388Z,100088.37
2022-08-29T04:35:47.400Z,100091.63
2022-08-29T04:38:16.639Z,100100.09
2022-08-29T04:40:45.163Z,100104.44
2022-08-29T04:43:15.164Z,100108.81
2022-08-29T04:45:43.956Z,100105.72
2022-08-29T04:48:11.907Z,100102.28
2022-08-29T04:50:46.621Z,100104.16
2022-08-29T04:53:18.332Z,100099.38
2022-08-29T04:56:06.522Z,100104.72
2022-08-29T04:58:44.855Z,100105.19
2022-08-29T05:01:19.827Z,100109.50
2022-08-29T05:03:57.059Z,100114.13
2022-08-29T05:06:33.048Z,100109.16
2022-08-29T05:09:13.068Z,100103.31
2022-08-29T05:11:43.758Z,100105.22
2022-08-29T05:14:17.946Z,100096.53
2022-08-29T05:16:58.367Z,100103.16
2022-08-29T05:19:34.606Z,100098.41
2022-08-29T05:22:07.308Z,100114.06
2022-08-29T05:24:37.908Z,100109.28
2022-08-29T05:27:18.751Z,100106.91
2022-08-29T05:29:49.610Z,100108.75
2022-08-29T05:32:24.813Z,100112.94
2022-08-29T05:34:56.331Z,100116.34
2022-08-29T05:37:25.764Z,100128.16
2022-08-29T05:39:54.187Z,100123.06
2022-08-29T05:42:23.014Z,100120.19
2022-08-29T05:44:52.105Z,100118.13
2022-08-29T05:47:20.634Z,100123.81
2022-08-29T05:49:49.324Z,100128.22
2022-08-29T05:52:20.653Z,100128.63
2022-08-29T05:54:48.772Z,100127.00
2022-08-29T05:57:20.552Z,100128.41
2022-08-29T05:59:50.236Z,100127.59
2022-08-29T06:02:19.150Z,100122.44
2022-08-29T06:04:47.874Z,100134.34
2022-08-29T06:07:15.810Z,100133.53
2022-08-29T06:09:44.610Z,100129.50
2022-08-29T06:12:15.581Z,100127.69
2022-08-29T06:14:50.555Z,100140.75
2022-08-29T06:17:19.198Z,100138.87
2022-08-29T06:19:50.434Z,100144.09
2022-08-29T06:22:22.595Z,100146.91
2022-08-29T06:24:55.067Z,100154.75
2022-08-29T06:27:28.963Z,100153.53
2022-08-29T06:30:01.751Z,100166.50
2022-08-29T06:32:30.218Z,100160.81
2022-08-29T06:35:01.016Z,100156.41
2022-08-29T06:37:31.253Z,100156.97
2022-08-29T06:41:12.073Z,100165.87
2022-08-29T06:55:42.309Z,100169.69
2022-08-29T07:39:18.748Z,100178.69
2022-08-29T07:42:28.108Z,100178.69
2022-08-29T07:44:56.268Z,100179.22
2022-08-29T07:47:27.229Z,100183.44
2022-08-29T07:49:56.187Z,100184.16
2022-08-29T07:52:45.460Z,100179.72
2022-08-29T07:55:22.335Z,100180.22
2022-08-29T07:58:04.954Z,100176.13
2022-08-29T08:00:34.278Z,100178.66
2022-08-29T08:03:24.728Z,100179.41
2022-08-29T08:05:54.055Z,100181.16
2022-08-29T08:08:23.195Z,100185.94
2022-08-29T08:11:20.725Z,100187.62
2022-08-29T08:14:09.520Z,100195.19
2022-08-29T08:16:38.736Z,100199.66
2022-08-29T08:19:15.756Z,100195.66
2022-08-29T08:21:49.694Z,100195.66
2022-08-29T08:24:56.041Z,100198.72
2022-08-29T08:27:24.512Z,100189.03
2022-08-29T08:29:55.572Z,100188.31
2022-08-29T08:32:24.920Z,100197.72
2022-08-29T08:35:04.197Z,100192.38
2022-08-29T08:37:34.128Z,100192.16
2022-08-29T08:40:23.269Z,100188.47
2022-08-29T08:42:52.493Z,100181.41
2022-08-29T08:46:01.614Z,100185.75
2022-08-29T08:49:08.268Z,100188.56
2022-08-29T08:52:04.419Z,100197.94
2022-08-29T08:55:01.763Z,100195.38
2022-08-29T08:58:52.994Z,100196.56
2022-08-29T09:01:49.884Z,100191.38
2022-08-29T09:04:34.143Z,100185.00
2022-08-29T09:08:14.990Z,100193.63
2022-08-29T09:11:09.636Z,100193.31
2022-08-29T09:17:36.419Z,100181.50
2022-08-29T09:23:26.475Z,100176.22
2022-08-29T09:26:07.057Z,100176.13
2022-08-29T09:28:56.636Z,100174.25
2022-08-29T09:31:34.266Z,100173.25
2022-08-29T09:34:15.272Z,100178.94
2022-08-29T09:36:51.813Z,100179.59
2022-08-29T09:43:14.211Z,100180.19
2022-08-29T09:46:07.336Z,100181.31
2022-08-29T09:49:22.867Z,100182.56
2022-08-29T09:53:01.245Z,100173.59
2022-08-29T11:00:43.893Z,100168.97
2022-08-29T11:04:24.536Z,100165.16
2022-08-29T11:07:31.644Z,100167.16
2022-08-29T11:10:40.821Z,100158.94
2022-08-29T11:13:34.310Z,100157.59
2022-08-29T12:04:58.814Z,100138.94
2022-08-29T12:07:49.170Z,100142.56
2022-08-29T12:10:55.664Z,100137.47
2022-08-29T12:23:11.214Z,100127.50
2022-08-29T12:26:43.880Z,100128.31
2022-08-29T12:29:44.491Z,100124.22
2022-08-29T12:32:47.090Z,100122.47
2022-08-29T12:35:55.766Z,100123.69
2022-08-29T12:45:12.517Z,100115.31
2022-08-29T13:20:41.132Z,100079.09
2022-08-29T13:23:31.343Z,100079.78
2022-08-29T13:26:11.977Z,100076.09
2022-08-29T13:28:53.872Z,100083.19
2022-08-29T13:31:34.863Z,100082.09
2022-08-29T13:34:11.039Z,100075.25
2022-08-29T13:36:59.271Z,100066.53
2022-08-29T13:39:41.598Z,100072.44
2022-08-29T13:42:15.560Z,100060.09
2022-08-29T13:44:47.527Z,100069.47
2022-08-29T13:47:25.095Z,100064.06
2022-08-29T13:50:01.385Z,100068.34
2022-08-29T13:52:31.636Z,100063.13
2022-08-29T13:55:02.749Z,100060.09
2022-08-29T13:57:31.743Z,100050.59
2022-08-29T13:59:59.842Z,100058.44
2022-08-29T14:02:28.764Z,100069.81
2022-08-29T14:05:04.121Z,100053.69
2022-08-29T14:07:41.400Z,100055.47
2022-08-29T14:10:32.546Z,100063.41
2022-08-29T14:13:12.387Z,100054.37
2022-08-29T14:15:48.755Z,100060.94
2022-08-29T14:18:17.206Z,100051.13
2022-08-29T14:20:48.386Z,100047.37
2022-08-29T14:23:23.151Z,100051.66
2022-08-29T14:26:08.669Z,100046.75
2022-08-29T14:28:47.972Z,100053.94
2022-08-29T14:31:33.443Z,100057.87
2022-08-29T14:34:11.188Z,100057.34
2022-08-29T14:36:48.324Z,100058.06
2022-08-29T14:39:16.577Z,100047.94
2022-08-29T14:42:02.682Z,100044.06
2022-08-29T14:44:40.930Z,100047.94
2022-08-29T14:47:16.124Z,100042.94
2022-08-29T14:49:48.633Z,100045.56
2022-08-29T14:52:29.887Z,100046.59
2022-08-29T14:55:17.159Z,100041.69
2022-08-29T14:57:53.598Z,100046.28
2022-08-29T15:00:28.662Z,100042.31
2022-08-29T15:03:03.471Z,100044.97
2022-08-29T15:05:43.002Z,100036.31
2022-08-29T15:08:19.360Z,100041.38
2022-08-29T15:10:55.542Z,100042.84
2022-08-29T15:13:24.225Z,100054.44
2022-08-29T15:15:54.186Z,100049.03
2022-08-29T15:19:53.380Z,100053.81
2022-08-29T15:23:00.349Z,100053.91
2022-08-29T15:26:37.403Z,100041.44
2022-08-29T15:33:08.322Z,100041.16
2022-08-29T15:36:29.855Z,100031.25
2022-08-29T15:39:44.842Z,100041.78
2022-08-29T15:42:47.533Z,100036.19
2022-08-29T15:45:50.862Z,100037.88
2022-08-29T15:49:06.985Z,100042.31
2022-08-29T15:55:19.692Z,100044.13
2022-08-29T15:58:32.318Z,100044.00
2022-08-29T16:01:46.099Z,100046.28
2022-08-29T16:04:57.773Z,100040.00
2022-08-29T16:08:17.657Z,100044.31
2022-08-29T16:11:19.817Z,100046.34
2022-08-29T16:20:56.695Z,100046.03
2022-08-29T16:24:03.238Z,100040.00
2022-08-29T16:27:02.533Z,100041.03
2022-08-29T16:30:20.406Z,100041.13
2022-08-29T16:33:20.369Z,100040.94
2022-08-29T16:36:44.865Z,100047.81
2022-08-29T16:39:47.602Z,100052.69
2022-08-29T16:42:55.385Z,100053.69
2022-08-29T16:45:49.462Z,100056.28
2022-08-29T16:48:44.674Z,100063.59
2022-08-29T16:51:38.655Z,100079.03
2022-08-29T16:54:34.568Z,100072.09
2022-08-29T16:57:52.945Z,100079.12
2022-08-29T17:00:53.207Z,100083.69
2022-08-29T17:03:42.218Z,100090.38
2022-08-29T17:06:47.873Z,100096.44
2022-08-29T17:09:43.874Z,100097.13
2022-08-29T17:12:37.696Z,100095.00
2022-08-29T17:15:16.646Z,100094.59
2022-08-29T17:18:00.041Z,100099.75
2022-08-29T17:20:53.682Z,100109.03
2022-08-29T17:23:35.563Z,100113.28
2022-08-29T17:26:24.629Z,100115.16
2022-08-29T17:29:13.099Z,100111.63
2022-08-29T17:32:41.464Z,100116.13
2022-08-29T17:35:25.948Z,100107.59
2022-08-29T17:38:05.867Z,100115.50
2022-08-29T17:40:49.094Z,100114.81
2022-08-29T17:43:40.668Z,100126.28
2022-08-29T17:46:15.299Z,100128.78
2022-08-29T17:48:52.205Z,100137.19
2022-08-29T17:54:20.843Z,100152.59
2022-08-29T17:57:07.691Z,100151.06
2022-08-29T17:59:41.457Z,100154.03
2022-08-29T18:02:26.334Z,100154.38
2022-08-29T18:05:07.376Z,100161.63
2022-08-29T18:07:44.467Z,100173.50
2022-08-29T18:10:34.696Z,100172.72
2022-08-29T18:13:09.928Z,100169.56
2022-08-29T18:15:46.372Z,100174.59
2022-08-29T18:18:26.713Z,100178.47
2022-08-29T18:21:07.480Z,100185.78
2022-08-29T18:23:41.824Z,100177.38
2022-08-29T18:26:24.332Z,100177.50
2022-08-29T18:29:07.065Z,100180.81
2022-08-29T18:31:45.632Z,100185.25
2022-08-29T18:34:30.212Z,100190.31
2022-08-29T18:37:16.589Z,100194.28
2022-08-29T18:39:52.816Z,100203.03
2022-08-29T18:42:40.428Z,100201.62
2022-08-29T18:45:13.941Z,100202.56
2022-08-29T18:47:49.003Z,100201.12
2022-08-29T18:50:37.298Z,100196.59
2022-08-29T18:53:21.136Z,100195.25
2022-08-29T18:56:03.628Z,100193.91
2022-08-29T18:58:47.044Z,100197.41
2022-08-29T19:01:30.450Z,100203.88
2022-08-29T19:04:11.966Z,100204.47
2022-08-29T19:06:54.991Z,100203.47
2022-08-29T19:09:31.788Z,100211.38
2022-08-29T19:12:15.487Z,100202.03
2022-08-29T19:14:57.590Z,100205.09
2022-08-29T19:17:45.478Z,100217.31
2022-08-29T19:20:39.828Z,100209.84
2022-08-29T19:23:12.100Z,100216.16
2022-08-29T19:25:46.591Z,100207.72
2022-08-29T19:28:23.788Z,100209.44
2022-08-29T19:30:54.695Z,100216.25
2022-08-29T19:33:37.449Z,100210.72
2022-08-29T19:36:21.703Z,100225.81
2022-08-29T19:38:52.913Z,100233.06
2022-08-29T19:41:35.080Z,100241.50
2022-08-29T19:44:12.867Z,100230.19
2022-08-29T19:46:53.457Z,100223.22
2022-08-29T19:49:30.866Z,100231.41
2022-08-29T19:52:15.016Z,100227.25
2022-08-29T19:54:51.459Z,100233.59
2022-08-29T19:57:40.827Z,100234.75
2022-08-29T20:00:21.929Z,100233.37
2022-08-29T20:03:00.015Z,100237.13
2022-08-29T20:05:30.992Z,100235.72
2022-08-29T20:08:10.646Z,100238.88
2022-08-29T20:11:01.660Z,100239.03
2022-08-29T20:13:35.770Z,100227.00
2022-08-29T20:16:14.337Z,100234.00
2022-08-29T20:18:52.927Z,100236.44
2022-08-29T20:21:29.576Z,100244.84
2022-08-29T20:24:08.091Z,100247.88
2022-08-29T20:26:43.247Z,100248.13
2022-08-29T20:29:30.386Z,100242.09
2022-08-29T20:32:14.827Z,100238.34
2022-08-29T20:34:55.643Z,100232.56
2022-08-29T20:37:28.824Z,100240.41
2022-08-29T20:40:00.384Z,100239.53
2022-08-29T20:42:38.824Z,100252.94
2022-08-29T20:45:13.259Z,100255.78
2022-08-29T20:47:44.635Z,100260.69
2022-08-29T20:50:49.768Z,100250.72
2022-08-29T20:53:32.584Z,100249.56
2022-08-29T20:56:12.707Z,100253.09
2022-08-29T20:58:46.838Z,100254.09
2022-08-29T21:01:28.464Z,100249.25
2022-08-29T21:04:20.984Z,100251.53
2022-08-29T21:07:01.777Z,100252.81
2022-08-29T21:09:33.353Z,100249.47
2022-08-29T21:12:10.275Z,100244.72
2022-08-29T21:14:41.206Z,100246.94
2022-08-29T21:17:18.361Z,100245.25
2022-08-29T21:19:47.042Z,100245.03
2022-08-29T21:22:21.680Z,100240.25
2022-08-29T21:24:59.306Z,100234.59
2022-08-29T21:27:34.613Z,100241.47
2022-08-29T21:30:15.716Z,100239.22
2022-08-29T21:32:51.037Z,100240.31
2022-08-29T21:35:34.278Z,100241.59
2022-08-29T21:38:08.104Z,100251.56
2022-08-29T21:40:52.897Z,100244.53
2022-08-29T21:43:35.044Z,100248.47
2022-08-29T21:46:31.701Z,100240.75
2022-08-29T21:49:08.476Z,100242.56
2022-08-29T21:51:47.481Z,100245.19
2022-08-29T21:54:31.605Z,100241.16
2022-08-29T21:57:01.282Z,100245.75
2022-08-29T21:59:38.603Z,100253.22
2022-08-29T22:02:22.416Z,100248.59
2022-08-29T22:04:57.117Z,100247.44
2022-08-29T22:07:46.861Z,100250.25
2022-08-29T22:10:26.687Z,100248.66
2022-08-29T22:12:56.282Z,100254.06
2022-08-29T22:15:57.089Z,100252.97
2022-08-29T22:18:43.297Z,100246.50
2022-08-29T22:21:15.410Z,100252.06
2022-08-29T22:23:50.145Z,100256.94
2022-08-29T22:26:32.710Z,100256.81
2022-08-29T22:29:11.666Z,100256.25
2022-08-29T22:31:53.518Z,100255.78
2022-08-29T22:34:32.888Z,100260.38
2022-08-29T22:37:13.192Z,100262.62
2022-08-29T22:39:54.684Z,100267.97
2022-08-29T22:42:32.756Z,100268.75
2022-08-29T22:45:09.660Z,100272.81
2022-08-29T22:47:50.776Z,100266.41
2022-08-29T22:50:39.167Z,100272.75
2022-08-29T22:55:59.273Z,100278.06
2022-08-29T22:58:43.716Z,100278.50
2022-08-29T23:01:19.434Z,100279.91
2022-08-29T23:03:58.211Z,100290.28
2022-08-29T23:06:34.602Z,100288.94
2022-08-29T23:09:09.682Z,100296.16
2022-08-29T23:11:47.747Z,100289.31
2022-08-29T23:14:30.625Z,100286.69
2022-08-29T23:17:08.480Z,100296.41
2022-08-29T23:19:51.902Z,100292.34
2022-08-29T23:22:24.444Z,100290.78
2022-08-29T23:25:03.317Z,100297.06
2022-08-29T23:27:37.910Z,100286.12
2022-08-29T23:30:19.203Z,100289.94
2022-08-29T23:33:01.137Z,100299.56
2022-08-29T23:35:35.886Z,100298.28
2022-08-29T23:38:06.806Z,100300.72
2022-08-29T23:40:46.414Z,100307.00
2022-08-29T23:43:26.024Z,100300.00
2022-08-29T23:46:00.980Z,100304.69
2022-08-29T23:48:40.600Z,100299.88
2022-08-29T23:51:19.076Z,100295.72
2022-08-29T23:53:55.232Z,100309.38
2022-08-29T23:56:42.626Z,100302.50
2022-08-29T23:59:35.592Z,100304.84
